DAL3996 SKBO-KMCO
Flight info
| Callsign | DAL3996 |
|---|---|
| Flight time | N/A |
| Altitude | 36000 |
| Route | ALTIB UM779 ZEUSS Y217 WOPNR ALYNA4 |
| Aircraft | B739/M-ICAOFAA/L |
Departure
| Time | N/A |
|---|---|
| Airport | El Dorado International Airport (SKBO) |
Arrival
| Time | 2026-04-25 04:14 |
|---|---|
| Airport | Orlando International Airport (KMCO) |
| Time | Latitude | Longitude | Altitude | Speed | Heading |
|---|---|---|---|---|---|
| 2026-04-25 01:56 | 15.42447 | -76.97955 | 35925 ft | 426 kts | 341° |
| 2026-04-25 01:56 | 15.47445 | -76.99052 | 35923 ft | 421 kts | 341° |
| 2026-04-25 01:57 | 15.56044 | -77.01032 | 35927 ft | 417 kts | 341° |
| 2026-04-25 01:58 | 15.61753 | -77.02352 | 35926 ft | 417 kts | 341° |
| 2026-04-25 01:58 | 15.67451 | -77.03672 | 35928 ft | 419 kts | 341° |
| 2026-04-25 01:59 | 15.73209 | -77.05016 | 35925 ft | 421 kts | 341° |
| 2026-04-25 01:59 | 15.78983 | -77.06362 | 35926 ft | 424 kts | 341° |
| 2026-04-25 02:00 | 15.84819 | -77.07718 | 35925 ft | 427 kts | 341° |
| 2026-04-25 02:00 | 15.90689 | -77.09083 | 35936 ft | 429 kts | 341° |
| 2026-04-25 02:01 | 15.96565 | -77.10452 | 35946 ft | 432 kts | 341° |
| 2026-04-25 02:01 | 16.02504 | -77.11835 | 35945 ft | 435 kts | 341° |
| 2026-04-25 02:02 | 16.08451 | -77.13222 | 35947 ft | 438 kts | 341° |
| 2026-04-25 02:02 | 16.14413 | -77.14613 | 35943 ft | 443 kts | 341° |
| 2026-04-25 02:03 | 16.20475 | -77.16022 | 35945 ft | 446 kts | 341° |
| 2026-04-25 02:03 | 16.26611 | -77.17456 | 35936 ft | 450 kts | 342° |
| 2026-04-25 02:04 | 16.32775 | -77.18895 | 35930 ft | 452 kts | 342° |
| 2026-04-25 02:04 | 16.38917 | -77.20322 | 35935 ft | 442 kts | 342° |
| 2026-04-25 02:05 | 16.44913 | -77.21725 | 35934 ft | 440 kts | 342° |
| 2026-04-25 02:05 | 16.50930 | -77.23136 | 35929 ft | 438 kts | 342° |
| 2026-04-25 02:06 | 16.56909 | -77.24538 | 35929 ft | 432 kts | 342° |
| 2026-04-25 02:06 | 16.62812 | -77.25928 | 35927 ft | 433 kts | 342° |
| 2026-04-25 02:07 | 16.68750 | -77.27323 | 35927 ft | 433 kts | 342° |
| 2026-04-25 02:07 | 16.74657 | -77.28711 | 35928 ft | 433 kts | 342° |
| 2026-04-25 02:08 | 16.80600 | -77.30105 | 35926 ft | 433 kts | 342° |
| 2026-04-25 02:08 | 16.86513 | -77.31493 | 35927 ft | 433 kts | 342° |
| 2026-04-25 02:09 | 16.92436 | -77.32885 | 35926 ft | 432 kts | 342° |
| 2026-04-25 02:09 | 16.98313 | -77.34267 | 35925 ft | 431 kts | 342° |
| 2026-04-25 02:10 | 17.04244 | -77.35661 | 35926 ft | 431 kts | 342° |
| 2026-04-25 02:10 | 17.10119 | -77.37047 | 35926 ft | 430 kts | 342° |
| 2026-04-25 02:11 | 17.15990 | -77.38429 | 35927 ft | 429 kts | 342° |
| 2026-04-25 02:11 | 17.21868 | -77.39816 | 35928 ft | 429 kts | 342° |
| 2026-04-25 02:12 | 17.27702 | -77.41194 | 35929 ft | 427 kts | 342° |
| 2026-04-25 02:12 | 17.33568 | -77.42582 | 35930 ft | 427 kts | 342° |
| 2026-04-25 02:13 | 17.39420 | -77.43966 | 35930 ft | 426 kts | 342° |
| 2026-04-25 02:13 | 17.45212 | -77.45339 | 35931 ft | 425 kts | 342° |
| 2026-04-25 02:14 | 17.51032 | -77.46718 | 35931 ft | 424 kts | 342° |
| 2026-04-25 02:14 | 17.56828 | -77.48090 | 35932 ft | 423 kts | 342° |
| 2026-04-25 02:15 | 17.62615 | -77.49466 | 35933 ft | 423 kts | 342° |
| 2026-04-25 02:15 | 17.68348 | -77.50822 | 35932 ft | 422 kts | 343° |
| 2026-04-25 02:16 | 17.74103 | -77.52185 | 35932 ft | 421 kts | 343° |
| 2026-04-25 02:16 | 17.79829 | -77.53541 | 35941 ft | 421 kts | 343° |
| 2026-04-25 02:17 | 17.85586 | -77.54910 | 35955 ft | 420 kts | 343° |
| 2026-04-25 02:17 | 17.91315 | -77.56276 | 35966 ft | 420 kts | 342° |
| 2026-04-25 02:18 | 17.97066 | -77.57646 | 35978 ft | 419 kts | 343° |
| 2026-04-25 02:18 | 18.02788 | -77.59007 | 35989 ft | 418 kts | 343° |
| 2026-04-25 02:19 | 18.08469 | -77.60355 | 35995 ft | 418 kts | 343° |
| 2026-04-25 02:19 | 18.14156 | -77.61717 | 36001 ft | 418 kts | 343° |
| 2026-04-25 02:20 | 18.19858 | -77.63076 | 36002 ft | 417 kts | 343° |
| 2026-04-25 02:20 | 18.25557 | -77.64435 | 36006 ft | 417 kts | 343° |
| 2026-04-25 02:21 | 18.31245 | -77.65794 | 35997 ft | 417 kts | 342° |
| 2026-04-25 02:21 | 18.36932 | -77.67158 | 35986 ft | 418 kts | 342° |
| 2026-04-25 02:22 | 18.42666 | -77.68530 | 35968 ft | 418 kts | 343° |
| 2026-04-25 02:22 | 18.48332 | -77.69886 | 35958 ft | 417 kts | 343° |
| 2026-04-25 02:23 | 18.54053 | -77.71255 | 35948 ft | 418 kts | 343° |
| 2026-04-25 02:23 | 18.59774 | -77.72625 | 35947 ft | 417 kts | 343° |
| 2026-04-25 02:24 | 18.65452 | -77.73981 | 35941 ft | 417 kts | 343° |
| 2026-04-25 02:24 | 18.71164 | -77.75351 | 35937 ft | 417 kts | 343° |
| 2026-04-25 02:25 | 18.76830 | -77.76717 | 35934 ft | 415 kts | 343° |
| 2026-04-25 02:25 | 18.82490 | -77.78082 | 35929 ft | 416 kts | 343° |
| 2026-04-25 02:26 | 18.88211 | -77.79458 | 35930 ft | 417 kts | 343° |
| 2026-04-25 02:26 | 18.93877 | -77.80817 | 35930 ft | 416 kts | 343° |
| 2026-04-25 02:27 | 18.99572 | -77.82190 | 35929 ft | 415 kts | 343° |
| 2026-04-25 02:27 | 19.05245 | -77.83558 | 35929 ft | 416 kts | 343° |
| 2026-04-25 02:28 | 19.10947 | -77.84931 | 35930 ft | 417 kts | 343° |
| 2026-04-25 02:28 | 19.16639 | -77.86299 | 35927 ft | 418 kts | 343° |
| 2026-04-25 02:29 | 19.22351 | -77.87677 | 35926 ft | 417 kts | 342° |
| 2026-04-25 02:29 | 19.28048 | -77.89058 | 35927 ft | 417 kts | 343° |
| 2026-04-25 02:30 | 19.33735 | -77.90438 | 35928 ft | 416 kts | 343° |
| 2026-04-25 02:30 | 19.39419 | -77.91814 | 35927 ft | 415 kts | 343° |
| 2026-04-25 02:31 | 19.45086 | -77.93188 | 35930 ft | 416 kts | 343° |
| 2026-04-25 02:31 | 19.50781 | -77.94569 | 35927 ft | 416 kts | 343° |
| 2026-04-25 02:32 | 19.56476 | -77.95953 | 35928 ft | 415 kts | 343° |
| 2026-04-25 02:32 | 19.62150 | -77.97328 | 35926 ft | 414 kts | 343° |
| 2026-04-25 02:33 | 19.67803 | -77.98702 | 35928 ft | 414 kts | 342° |
| 2026-04-25 02:33 | 19.73446 | -78.00074 | 35928 ft | 415 kts | 343° |
| 2026-04-25 02:34 | 19.79135 | -78.01456 | 35926 ft | 415 kts | 343° |
| 2026-04-25 02:34 | 19.84799 | -78.02739 | 35925 ft | 416 kts | 345° |
| 2026-04-25 02:35 | 19.90553 | -78.03767 | 35926 ft | 416 kts | 346° |
| 2026-04-25 02:35 | 19.96342 | -78.04750 | 35927 ft | 416 kts | 346° |
| 2026-04-25 02:36 | 20.02084 | -78.05749 | 35927 ft | 414 kts | 346° |
| 2026-04-25 02:36 | 20.07778 | -78.06764 | 35922 ft | 414 kts | 346° |
| 2026-04-25 02:37 | 20.13480 | -78.07790 | 35925 ft | 414 kts | 346° |
| 2026-04-25 02:37 | 20.19195 | -78.08823 | 35929 ft | 413 kts | 345° |
| 2026-04-25 02:38 | 20.24902 | -78.09855 | 35927 ft | 413 kts | 345° |
| 2026-04-25 02:38 | 20.30598 | -78.10886 | 35934 ft | 413 kts | 345° |
| 2026-04-25 02:39 | 20.36284 | -78.11917 | 35930 ft | 412 kts | 345° |
| 2026-04-25 02:39 | 20.41996 | -78.12951 | 35935 ft | 411 kts | 345° |
| 2026-04-25 02:40 | 20.47642 | -78.13978 | 35936 ft | 411 kts | 345° |
| 2026-04-25 02:40 | 20.53329 | -78.15012 | 35936 ft | 410 kts | 345° |
| 2026-04-25 02:41 | 20.58957 | -78.16038 | 35937 ft | 410 kts | 345° |
| 2026-04-25 02:41 | 20.64633 | -78.17072 | 35939 ft | 410 kts | 345° |
| 2026-04-25 02:42 | 20.70285 | -78.18102 | 35943 ft | 410 kts | 345° |
| 2026-04-25 02:42 | 20.75964 | -78.19137 | 35944 ft | 409 kts | 345° |
| 2026-04-25 02:43 | 20.81621 | -78.20168 | 35940 ft | 409 kts | 345° |
| 2026-04-25 02:43 | 20.87251 | -78.21195 | 35941 ft | 408 kts | 345° |
| 2026-04-25 02:44 | 20.92890 | -78.22226 | 35946 ft | 408 kts | 344° |
| 2026-04-25 02:44 | 20.98514 | -78.23254 | 35944 ft | 408 kts | 344° |
| 2026-04-25 02:45 | 21.04137 | -78.24281 | 35939 ft | 407 kts | 344° |
| 2026-04-25 02:45 | 21.09782 | -78.25316 | 35944 ft | 407 kts | 344° |
| 2026-04-25 02:46 | 21.15377 | -78.26342 | 35945 ft | 408 kts | 344° |
| 2026-04-25 02:46 | 21.20984 | -78.27375 | 35949 ft | 409 kts | 344° |
| 2026-04-25 02:47 | 21.26615 | -78.28413 | 35944 ft | 408 kts | 344° |
| 2026-04-25 02:47 | 21.32281 | -78.29452 | 35945 ft | 408 kts | 344° |
| 2026-04-25 02:48 | 21.37882 | -78.30482 | 35951 ft | 408 kts | 344° |
| 2026-04-25 02:48 | 21.43533 | -78.31523 | 35942 ft | 408 kts | 344° |
| 2026-04-25 02:49 | 21.49166 | -78.32559 | 35946 ft | 408 kts | 344° |
| 2026-04-25 02:49 | 21.54781 | -78.33593 | 35949 ft | 409 kts | 344° |
| 2026-04-25 02:50 | 21.60437 | -78.34640 | 35948 ft | 409 kts | 344° |
| 2026-04-25 02:50 | 21.66015 | -78.35802 | 35950 ft | 404 kts | 339° |
| 2026-04-25 02:51 | 21.71376 | -78.37633 | 35948 ft | 401 kts | 335° |
| 2026-04-25 02:51 | 21.76708 | -78.39587 | 35954 ft | 400 kts | 336° |
| 2026-04-25 02:52 | 21.82046 | -78.41449 | 35948 ft | 400 kts | 337° |
| 2026-04-25 02:52 | 21.87381 | -78.43248 | 35952 ft | 400 kts | 337° |
| 2026-04-25 02:53 | 21.92709 | -78.45024 | 35945 ft | 400 kts | 337° |
| 2026-04-25 02:53 | 21.98062 | -78.46803 | 35948 ft | 401 kts | 337° |
| 2026-04-25 02:54 | 22.03402 | -78.48579 | 35953 ft | 400 kts | 337° |
| 2026-04-25 02:54 | 22.08778 | -78.50363 | 35963 ft | 400 kts | 337° |
| 2026-04-25 02:55 | 22.14115 | -78.52136 | 35966 ft | 400 kts | 337° |
| 2026-04-25 02:55 | 22.19467 | -78.53910 | 35965 ft | 399 kts | 337° |
| 2026-04-25 02:56 | 22.24765 | -78.55673 | 35964 ft | 396 kts | 337° |
| 2026-04-25 02:56 | 22.30078 | -78.57448 | 35959 ft | 395 kts | 337° |
| 2026-04-25 02:57 | 22.35327 | -78.59199 | 35960 ft | 395 kts | 337° |
| 2026-04-25 02:57 | 22.40626 | -78.60965 | 35958 ft | 396 kts | 337° |
| 2026-04-25 02:58 | 22.45931 | -78.62735 | 35959 ft | 396 kts | 337° |
| 2026-04-25 02:58 | 22.51189 | -78.64494 | 35955 ft | 396 kts | 337° |
| 2026-04-25 02:59 | 22.56520 | -78.66278 | 35959 ft | 398 kts | 336° |
| 2026-04-25 02:59 | 22.61847 | -78.68062 | 35955 ft | 399 kts | 336° |
| 2026-04-25 03:00 | 22.67204 | -78.69856 | 35957 ft | 400 kts | 336° |
| 2026-04-25 03:00 | 22.72514 | -78.71633 | 35954 ft | 398 kts | 336° |
| 2026-04-25 03:01 | 22.77858 | -78.73425 | 35950 ft | 398 kts | 337° |
| 2026-04-25 03:01 | 22.83150 | -78.75203 | 35950 ft | 397 kts | 337° |
| 2026-04-25 03:02 | 22.88447 | -78.76987 | 35949 ft | 397 kts | 336° |
| 2026-04-25 03:02 | 22.93797 | -78.78790 | 35949 ft | 398 kts | 337° |
| 2026-04-25 03:03 | 22.99102 | -78.80576 | 35947 ft | 399 kts | 337° |
| 2026-04-25 03:03 | 23.04449 | -78.82375 | 35950 ft | 398 kts | 336° |
| 2026-04-25 03:04 | 23.09789 | -78.84171 | 35953 ft | 399 kts | 337° |
| 2026-04-25 03:04 | 23.15127 | -78.85974 | 35950 ft | 399 kts | 337° |
| 2026-04-25 03:05 | 23.23152 | -78.88689 | 35953 ft | 399 kts | 337° |
| 2026-04-25 03:05 | 23.28500 | -78.90501 | 35786 ft | 400 kts | 336° |
| 2026-04-25 03:06 | 23.31174 | -78.91406 | 35679 ft | 400 kts | 336° |
| 2026-04-25 03:06 | 23.33832 | -78.92306 | 35544 ft | 400 kts | 337° |
| 2026-04-25 03:06 | 23.36525 | -78.93219 | 35408 ft | 401 kts | 337° |
| 2026-04-25 03:06 | 23.39233 | -78.94140 | 35274 ft | 405 kts | 336° |
| 2026-04-25 03:07 | 23.41936 | -78.95059 | 35137 ft | 407 kts | 337° |
| 2026-04-25 03:07 | 23.44672 | -78.95989 | 35003 ft | 406 kts | 337° |
| 2026-04-25 03:07 | 23.47351 | -78.96899 | 34869 ft | 405 kts | 337° |
| 2026-04-25 03:07 | 23.50073 | -78.97822 | 34728 ft | 403 kts | 338° |
| 2026-04-25 03:08 | 23.52748 | -78.98729 | 34212 ft | 406 kts | 337° |
| 2026-04-25 03:08 | 23.55483 | -78.99659 | 33635 ft | 408 kts | 338° |
| 2026-04-25 03:08 | 23.58194 | -79.00577 | 33458 ft | 405 kts | 338° |
| 2026-04-25 03:08 | 23.60924 | -79.01504 | 33347 ft | 408 kts | 337° |
| 2026-04-25 03:09 | 23.63639 | -79.02428 | 33217 ft | 413 kts | 338° |
| 2026-04-25 03:09 | 23.66417 | -79.03374 | 33091 ft | 418 kts | 338° |
| 2026-04-25 03:09 | 23.72013 | -79.05277 | 32925 ft | 418 kts | 338° |
| 2026-04-25 03:10 | 23.77571 | -79.07165 | 32771 ft | 414 kts | 338° |
| 2026-04-25 03:10 | 23.83091 | -79.09045 | 32589 ft | 413 kts | 338° |
| 2026-04-25 03:11 | 23.88626 | -79.10934 | 32406 ft | 413 kts | 338° |
| 2026-04-25 03:11 | 23.94140 | -79.12818 | 32228 ft | 411 kts | 338° |
| 2026-04-25 03:12 | 23.99593 | -79.14687 | 32026 ft | 412 kts | 338° |
| 2026-04-25 03:12 | 24.05089 | -79.16569 | 31801 ft | 409 kts | 338° |
| 2026-04-25 03:13 | 24.07841 | -79.17509 | 31667 ft | 409 kts | 338° |
| 2026-04-25 03:13 | 24.10566 | -79.18442 | 31540 ft | 410 kts | 338° |
| 2026-04-25 03:13 | 24.13161 | -79.19332 | 31418 ft | 415 kts | 338° |
| 2026-04-25 03:13 | 24.15937 | -79.20288 | 31289 ft | 418 kts | 338° |
| 2026-04-25 03:14 | 24.18695 | -79.21236 | 31155 ft | 417 kts | 338° |
| 2026-04-25 03:14 | 24.21491 | -79.22194 | 31028 ft | 416 kts | 338° |
| 2026-04-25 03:14 | 24.24252 | -79.23143 | 30906 ft | 416 kts | 338° |
| 2026-04-25 03:14 | 24.27014 | -79.24094 | 30775 ft | 415 kts | 338° |
| 2026-04-25 03:15 | 24.29803 | -79.25053 | 30645 ft | 415 kts | 338° |
| 2026-04-25 03:15 | 24.32575 | -79.26005 | 30514 ft | 415 kts | 338° |
| 2026-04-25 03:15 | 24.35326 | -79.26949 | 30390 ft | 413 kts | 338° |
| 2026-04-25 03:15 | 24.38101 | -79.27904 | 30261 ft | 414 kts | 338° |
| 2026-04-25 03:16 | 24.40851 | -79.28851 | 30140 ft | 413 kts | 338° |
| 2026-04-25 03:16 | 24.43628 | -79.29808 | 30005 ft | 413 kts | 338° |
| 2026-04-25 03:16 | 24.46386 | -79.30757 | 29878 ft | 412 kts | 338° |
| 2026-04-25 03:16 | 24.49106 | -79.31694 | 29750 ft | 410 kts | 338° |
| 2026-04-25 03:17 | 24.51865 | -79.32646 | 29620 ft | 410 kts | 338° |
| 2026-04-25 03:17 | 24.54576 | -79.33583 | 29496 ft | 408 kts | 338° |
| 2026-04-25 03:17 | 24.57331 | -79.34535 | 29359 ft | 409 kts | 338° |
| 2026-04-25 03:17 | 24.60059 | -79.35478 | 29237 ft | 409 kts | 338° |
| 2026-04-25 03:18 | 24.62773 | -79.36417 | 29108 ft | 408 kts | 338° |
| 2026-04-25 03:18 | 24.65515 | -79.37365 | 28981 ft | 408 kts | 338° |
| 2026-04-25 03:18 | 24.68222 | -79.38303 | 28848 ft | 408 kts | 338° |
| 2026-04-25 03:18 | 24.70965 | -79.39252 | 28725 ft | 406 kts | 338° |
| 2026-04-25 03:19 | 24.73652 | -79.40183 | 28601 ft | 406 kts | 338° |
| 2026-04-25 03:19 | 24.76348 | -79.41120 | 28479 ft | 408 kts | 338° |
| 2026-04-25 03:19 | 24.79089 | -79.42071 | 28346 ft | 406 kts | 338° |
| 2026-04-25 03:19 | 24.81824 | -79.43021 | 28219 ft | 408 kts | 338° |
| 2026-04-25 03:20 | 24.84563 | -79.43974 | 28085 ft | 413 kts | 338° |
| 2026-04-25 03:20 | 24.87308 | -79.44930 | 27962 ft | 411 kts | 338° |
| 2026-04-25 03:20 | 24.90038 | -79.45878 | 27835 ft | 410 kts | 338° |
| 2026-04-25 03:20 | 24.92757 | -79.46822 | 27706 ft | 410 kts | 338° |
| 2026-04-25 03:21 | 24.95482 | -79.47768 | 27577 ft | 409 kts | 338° |
| 2026-04-25 03:21 | 24.98219 | -79.48718 | 27446 ft | 408 kts | 338° |
| 2026-04-25 03:21 | 25.00952 | -79.49667 | 27320 ft | 408 kts | 339° |
| 2026-04-25 03:21 | 25.03677 | -79.50615 | 27194 ft | 408 kts | 338° |
| 2026-04-25 03:22 | 25.06371 | -79.51553 | 27094 ft | 407 kts | 338° |
| 2026-04-25 03:22 | 25.09088 | -79.52500 | 26990 ft | 406 kts | 338° |
| 2026-04-25 03:22 | 25.11807 | -79.53449 | 26886 ft | 406 kts | 339° |
| 2026-04-25 03:22 | 25.14484 | -79.54382 | 26782 ft | 403 kts | 338° |
| 2026-04-25 03:23 | 25.17165 | -79.55317 | 26681 ft | 404 kts | 338° |
| 2026-04-25 03:23 | 25.19869 | -79.56261 | 26557 ft | 405 kts | 339° |
| 2026-04-25 03:23 | 25.22576 | -79.57206 | 26427 ft | 404 kts | 339° |
| 2026-04-25 03:23 | 25.25274 | -79.58149 | 26271 ft | 403 kts | 339° |
| 2026-04-25 03:24 | 25.27947 | -79.59083 | 26093 ft | 402 kts | 339° |
| 2026-04-25 03:24 | 25.30635 | -79.60023 | 25911 ft | 401 kts | 339° |
| 2026-04-25 03:24 | 25.33295 | -79.60952 | 25734 ft | 401 kts | 339° |
| 2026-04-25 03:24 | 25.35975 | -79.61890 | 25556 ft | 399 kts | 339° |
| 2026-04-25 03:25 | 25.38641 | -79.62823 | 25374 ft | 398 kts | 339° |
| 2026-04-25 03:25 | 25.41283 | -79.63750 | 25198 ft | 399 kts | 339° |
| 2026-04-25 03:25 | 25.43934 | -79.64681 | 25019 ft | 397 kts | 339° |
| 2026-04-25 03:25 | 25.46550 | -79.65598 | 24843 ft | 396 kts | 339° |
| 2026-04-25 03:26 | 25.49204 | -79.66528 | 24666 ft | 394 kts | 338° |
| 2026-04-25 03:26 | 25.51574 | -79.67358 | 24505 ft | 394 kts | 339° |
| 2026-04-25 03:26 | 25.54280 | -79.68308 | 24318 ft | 392 kts | 339° |
| 2026-04-25 03:26 | 25.56792 | -79.69191 | 24145 ft | 392 kts | 339° |
| 2026-04-25 03:27 | 25.59348 | -79.70090 | 23972 ft | 391 kts | 339° |
| 2026-04-25 03:27 | 25.61822 | -79.70959 | 23806 ft | 390 kts | 339° |
| 2026-04-25 03:27 | 25.64427 | -79.71874 | 23629 ft | 390 kts | 339° |
| 2026-04-25 03:27 | 25.67016 | -79.72784 | 23452 ft | 389 kts | 339° |
| 2026-04-25 03:28 | 25.69627 | -79.73704 | 23275 ft | 388 kts | 339° |
| 2026-04-25 03:28 | 25.72193 | -79.74610 | 23097 ft | 387 kts | 339° |
| 2026-04-25 03:28 | 25.74785 | -79.75526 | 22918 ft | 387 kts | 339° |
| 2026-04-25 03:28 | 25.77341 | -79.76427 | 22743 ft | 386 kts | 339° |
| 2026-04-25 03:29 | 25.79930 | -79.77341 | 22568 ft | 385 kts | 339° |
| 2026-04-25 03:29 | 25.82466 | -79.78236 | 22398 ft | 384 kts | 339° |
| 2026-04-25 03:29 | 25.85031 | -79.79143 | 22229 ft | 383 kts | 339° |
| 2026-04-25 03:29 | 25.87583 | -79.80043 | 22056 ft | 382 kts | 339° |
| 2026-04-25 03:30 | 25.90130 | -79.80943 | 21880 ft | 381 kts | 339° |
| 2026-04-25 03:30 | 25.92686 | -79.81845 | 21703 ft | 380 kts | 339° |
| 2026-04-25 03:30 | 25.95189 | -79.82729 | 21530 ft | 379 kts | 339° |
| 2026-04-25 03:30 | 25.97724 | -79.83627 | 21358 ft | 379 kts | 339° |
| 2026-04-25 03:31 | 26.00262 | -79.84528 | 21185 ft | 378 kts | 339° |
| 2026-04-25 03:31 | 26.02787 | -79.85422 | 21006 ft | 377 kts | 339° |
| 2026-04-25 03:31 | 26.05291 | -79.86307 | 20831 ft | 376 kts | 339° |
| 2026-04-25 03:31 | 26.07781 | -79.87189 | 20660 ft | 375 kts | 339° |
| 2026-04-25 03:32 | 26.10288 | -79.88079 | 20481 ft | 374 kts | 339° |
| 2026-04-25 03:32 | 26.12770 | -79.88960 | 20297 ft | 372 kts | 339° |
| 2026-04-25 03:32 | 26.15251 | -79.89842 | 20124 ft | 372 kts | 339° |
| 2026-04-25 03:32 | 26.17723 | -79.90720 | 20003 ft | 370 kts | 339° |
| 2026-04-25 03:33 | 26.20206 | -79.91601 | 19984 ft | 369 kts | 339° |
| 2026-04-25 03:33 | 26.22657 | -79.92473 | 19981 ft | 370 kts | 339° |
| 2026-04-25 03:33 | 26.25137 | -79.93356 | 19979 ft | 371 kts | 339° |
| 2026-04-25 03:33 | 26.27620 | -79.94240 | 19979 ft | 370 kts | 339° |
| 2026-04-25 03:34 | 26.30060 | -79.95108 | 19980 ft | 370 kts | 339° |
| 2026-04-25 03:34 | 26.32553 | -79.95995 | 19979 ft | 371 kts | 339° |
| 2026-04-25 03:34 | 26.34998 | -79.96867 | 19981 ft | 371 kts | 339° |
| 2026-04-25 03:34 | 26.37491 | -79.97755 | 19981 ft | 370 kts | 339° |
| 2026-04-25 03:35 | 26.39953 | -79.98634 | 19980 ft | 370 kts | 339° |
| 2026-04-25 03:35 | 26.42428 | -79.99517 | 19981 ft | 369 kts | 339° |
| 2026-04-25 03:35 | 26.44881 | -80.00392 | 19981 ft | 370 kts | 339° |
| 2026-04-25 03:35 | 26.47345 | -80.01272 | 19981 ft | 368 kts | 339° |
| 2026-04-25 03:36 | 26.49806 | -80.02151 | 19981 ft | 369 kts | 339° |
| 2026-04-25 03:36 | 26.52253 | -80.03025 | 19981 ft | 370 kts | 339° |
| 2026-04-25 03:36 | 26.54729 | -80.03911 | 19981 ft | 370 kts | 339° |
| 2026-04-25 03:36 | 26.57192 | -80.04792 | 19981 ft | 369 kts | 339° |
| 2026-04-25 03:37 | 26.59669 | -80.05679 | 19979 ft | 369 kts | 339° |
| 2026-04-25 03:37 | 26.62120 | -80.06557 | 19978 ft | 370 kts | 339° |
| 2026-04-25 03:37 | 26.64585 | -80.07452 | 19966 ft | 370 kts | 339° |
| 2026-04-25 03:37 | 26.66992 | -80.08443 | 19918 ft | 363 kts | 334° |
| 2026-04-25 03:38 | 26.69195 | -80.09667 | 19869 ft | 347 kts | 327° |
| 2026-04-25 03:38 | 26.71220 | -80.11109 | 19793 ft | 333 kts | 323° |
| 2026-04-25 03:38 | 26.73071 | -80.12574 | 19611 ft | 323 kts | 322° |
| 2026-04-25 03:38 | 26.74902 | -80.14074 | 19370 ft | 331 kts | 322° |
| 2026-04-25 03:39 | 26.76779 | -80.15620 | 19122 ft | 334 kts | 322° |
| 2026-04-25 03:39 | 26.78695 | -80.17188 | 18871 ft | 336 kts | 322° |
| 2026-04-25 03:39 | 26.80602 | -80.18737 | 18630 ft | 338 kts | 322° |
| 2026-04-25 03:39 | 26.82502 | -80.20273 | 18396 ft | 340 kts | 323° |
| 2026-04-25 03:40 | 26.84434 | -80.21825 | 18150 ft | 341 kts | 323° |
| 2026-04-25 03:40 | 26.86399 | -80.23402 | 17903 ft | 343 kts | 323° |
| 2026-04-25 03:40 | 26.88344 | -80.24961 | 17658 ft | 344 kts | 323° |
| 2026-04-25 03:40 | 26.90296 | -80.26528 | 17426 ft | 345 kts | 323° |
| 2026-04-25 03:41 | 26.92272 | -80.28115 | 17193 ft | 347 kts | 323° |
| 2026-04-25 03:41 | 26.94234 | -80.29693 | 16951 ft | 348 kts | 323° |
| 2026-04-25 03:41 | 26.96225 | -80.31295 | 16707 ft | 349 kts | 323° |
| 2026-04-25 03:41 | 26.98214 | -80.32896 | 16469 ft | 349 kts | 323° |
| 2026-04-25 03:42 | 27.00177 | -80.34475 | 16233 ft | 349 kts | 323° |
| 2026-04-25 03:42 | 27.02158 | -80.36071 | 15987 ft | 349 kts | 323° |
| 2026-04-25 03:42 | 27.04151 | -80.37678 | 15748 ft | 349 kts | 323° |
| 2026-04-25 03:42 | 27.06130 | -80.39275 | 15501 ft | 347 kts | 323° |
| 2026-04-25 03:43 | 27.08073 | -80.40841 | 15256 ft | 343 kts | 323° |
| 2026-04-25 03:43 | 27.10007 | -80.42402 | 15019 ft | 340 kts | 323° |
| 2026-04-25 03:43 | 27.11883 | -80.43916 | 14780 ft | 336 kts | 323° |
| 2026-04-25 03:43 | 27.13773 | -80.45442 | 14535 ft | 331 kts | 323° |
| 2026-04-25 03:44 | 27.15630 | -80.46942 | 14292 ft | 325 kts | 323° |
| 2026-04-25 03:44 | 27.17456 | -80.48421 | 14053 ft | 319 kts | 323° |
| 2026-04-25 03:44 | 27.19237 | -80.49864 | 13817 ft | 312 kts | 323° |
| 2026-04-25 03:44 | 27.20987 | -80.51280 | 13574 ft | 307 kts | 323° |
| 2026-04-25 03:45 | 27.22730 | -80.52690 | 13327 ft | 301 kts | 323° |
| 2026-04-25 03:45 | 27.24420 | -80.54057 | 13090 ft | 296 kts | 323° |
| 2026-04-25 03:45 | 27.26079 | -80.55401 | 12845 ft | 292 kts | 323° |
| 2026-04-25 03:45 | 27.27728 | -80.56739 | 12607 ft | 287 kts | 323° |
| 2026-04-25 03:46 | 27.29335 | -80.58043 | 12366 ft | 283 kts | 323° |
| 2026-04-25 03:46 | 27.30917 | -80.59327 | 12118 ft | 279 kts | 323° |
| 2026-04-25 03:46 | 27.32482 | -80.60595 | 12014 ft | 268 kts | 323° |
| 2026-04-25 03:46 | 27.33979 | -80.61809 | 12020 ft | 257 kts | 323° |
| 2026-04-25 03:47 | 27.35431 | -80.62986 | 12021 ft | 257 kts | 323° |
| 2026-04-25 03:47 | 27.36887 | -80.64167 | 12025 ft | 260 kts | 323° |
| 2026-04-25 03:47 | 27.38391 | -80.65389 | 12018 ft | 268 kts | 323° |
| 2026-04-25 03:47 | 27.39752 | -80.66496 | 12019 ft | 274 kts | 323° |
| 2026-04-25 03:48 | 27.41355 | -80.67802 | 12023 ft | 280 kts | 323° |
| 2026-04-25 03:48 | 27.42970 | -80.69116 | 12020 ft | 286 kts | 323° |
| 2026-04-25 03:48 | 27.44620 | -80.70457 | 12015 ft | 292 kts | 323° |
| 2026-04-25 03:48 | 27.46288 | -80.71813 | 12011 ft | 297 kts | 323° |
| 2026-04-25 03:49 | 27.47976 | -80.73188 | 12017 ft | 300 kts | 323° |
| 2026-04-25 03:49 | 27.49694 | -80.74589 | 12020 ft | 303 kts | 323° |
| 2026-04-25 03:49 | 27.51415 | -80.75991 | 12017 ft | 307 kts | 323° |
| 2026-04-25 03:49 | 27.53154 | -80.77408 | 12014 ft | 310 kts | 323° |
| 2026-04-25 03:50 | 27.54925 | -80.78852 | 12002 ft | 313 kts | 323° |
| 2026-04-25 03:50 | 27.56690 | -80.80290 | 12001 ft | 315 kts | 323° |
| 2026-04-25 03:50 | 27.58501 | -80.81768 | 12012 ft | 318 kts | 323° |
| 2026-04-25 03:50 | 27.60289 | -80.83227 | 12018 ft | 320 kts | 323° |
| 2026-04-25 03:51 | 27.62102 | -80.84709 | 12009 ft | 323 kts | 323° |
| 2026-04-25 03:51 | 27.63942 | -80.86213 | 12012 ft | 325 kts | 323° |
| 2026-04-25 03:51 | 27.65791 | -80.87723 | 12008 ft | 327 kts | 323° |
| 2026-04-25 03:51 | 27.67644 | -80.89238 | 12016 ft | 328 kts | 323° |
| 2026-04-25 03:52 | 27.69482 | -80.90741 | 12018 ft | 331 kts | 323° |
| 2026-04-25 03:52 | 27.71379 | -80.92294 | 12022 ft | 333 kts | 323° |
| 2026-04-25 03:52 | 27.73264 | -80.93838 | 12013 ft | 334 kts | 323° |
| 2026-04-25 03:52 | 27.75169 | -80.95399 | 12025 ft | 336 kts | 323° |
| 2026-04-25 03:53 | 27.77055 | -80.96944 | 12018 ft | 338 kts | 323° |
| 2026-04-25 03:53 | 27.78984 | -80.98525 | 12005 ft | 339 kts | 323° |
| 2026-04-25 03:53 | 27.80889 | -81.00086 | 12017 ft | 340 kts | 323° |
| 2026-04-25 03:53 | 27.82821 | -81.01672 | 12018 ft | 341 kts | 323° |
| 2026-04-25 03:54 | 27.84754 | -81.03258 | 11880 ft | 344 kts | 323° |
| 2026-04-25 03:54 | 27.86695 | -81.04852 | 11648 ft | 350 kts | 323° |
| 2026-04-25 03:54 | 27.88684 | -81.06486 | 11394 ft | 350 kts | 324° |
| 2026-04-25 03:54 | 27.90645 | -81.08097 | 11165 ft | 344 kts | 324° |
| 2026-04-25 03:55 | 27.92567 | -81.09677 | 10917 ft | 337 kts | 324° |
| 2026-04-25 03:55 | 27.94499 | -81.11157 | 10676 ft | 329 kts | 330° |
| 2026-04-25 03:55 | 27.96551 | -81.12193 | 10438 ft | 321 kts | 342° |
| 2026-04-25 03:55 | 27.98703 | -81.12833 | 10191 ft | 313 kts | 347° |
| 2026-04-25 03:56 | 28.00814 | -81.13322 | 9952 ft | 306 kts | 348° |
| 2026-04-25 03:56 | 28.02889 | -81.13796 | 9712 ft | 296 kts | 348° |
| 2026-04-25 03:56 | 28.04860 | -81.14275 | 9469 ft | 287 kts | 347° |
| 2026-04-25 03:56 | 28.06785 | -81.14771 | 9238 ft | 276 kts | 346° |
| 2026-04-25 03:57 | 28.08552 | -81.15471 | 9009 ft | 266 kts | 332° |
| 2026-04-25 03:57 | 28.09980 | -81.16780 | 8678 ft | 262 kts | 310° |
| 2026-04-25 03:57 | 28.10845 | -81.18560 | 8284 ft | 262 kts | 289° |
| 2026-04-25 03:57 | 28.11048 | -81.20596 | 7860 ft | 263 kts | 267° |
| 2026-04-25 03:58 | 28.10544 | -81.22589 | 7413 ft | 265 kts | 244° |
| 2026-04-25 03:58 | 28.09398 | -81.24226 | 7045 ft | 263 kts | 223° |
| 2026-04-25 03:58 | 28.07954 | -81.25416 | 6769 ft | 252 kts | 215° |
| 2026-04-25 03:58 | 28.06491 | -81.26494 | 6524 ft | 241 kts | 212° |
| 2026-04-25 03:59 | 28.04984 | -81.27246 | 6357 ft | 233 kts | 197° |
| 2026-04-25 03:59 | 28.03405 | -81.27482 | 6213 ft | 222 kts | 184° |
| 2026-04-25 03:59 | 28.01900 | -81.27471 | 6195 ft | 206 kts | 171° |
| 2026-04-25 03:59 | 28.00709 | -81.26743 | 6170 ft | 192 kts | 125° |
| 2026-04-25 04:00 | 28.00404 | -81.25362 | 6162 ft | 175 kts | 73° |
| 2026-04-25 04:00 | 28.01088 | -81.24365 | 6078 ft | 160 kts | 22° |
| 2026-04-25 04:00 | 28.02153 | -81.23931 | 5861 ft | 163 kts | 19° |
| 2026-04-25 04:00 | 28.03237 | -81.23464 | 5617 ft | 169 kts | 20° |
| 2026-04-25 04:01 | 28.04352 | -81.22974 | 5371 ft | 173 kts | 20° |
| 2026-04-25 04:01 | 28.05495 | -81.22524 | 5118 ft | 175 kts | 14° |
| 2026-04-25 04:01 | 28.06701 | -81.22234 | 4886 ft | 175 kts | 6° |
| 2026-04-25 04:01 | 28.07910 | -81.22276 | 4744 ft | 168 kts | 343° |
| 2026-04-25 04:02 | 28.08853 | -81.22959 | 4700 ft | 157 kts | 307° |
| 2026-04-25 04:02 | 28.09223 | -81.24084 | 4694 ft | 157 kts | 271° |
| 2026-04-25 04:02 | 28.08912 | -81.25290 | 4699 ft | 165 kts | 236° |
| 2026-04-25 04:02 | 28.08025 | -81.26157 | 4707 ft | 171 kts | 212° |
| 2026-04-25 04:03 | 28.06976 | -81.26876 | 4709 ft | 177 kts | 211° |
| 2026-04-25 04:03 | 28.06090 | -81.27850 | 4672 ft | 183 kts | 238° |
| 2026-04-25 04:03 | 28.05471 | -81.29172 | 4390 ft | 206 kts | 250° |
| 2026-04-25 04:03 | 28.05385 | -81.30857 | 4161 ft | 221 kts | 276° |
| 2026-04-25 04:04 | 28.05322 | -81.32632 | 4074 ft | 232 kts | 265° |
| 2026-04-25 04:04 | 28.05321 | -81.34488 | 3952 ft | 238 kts | 282° |
| 2026-04-25 04:04 | 28.05703 | -81.36326 | 3926 ft | 239 kts | 290° |
| 2026-04-25 04:04 | 28.06365 | -81.38062 | 3866 ft | 241 kts | 303° |
| 2026-04-25 04:05 | 28.07375 | -81.39606 | 3748 ft | 245 kts | 313° |
| 2026-04-25 04:05 | 28.08486 | -81.41089 | 3584 ft | 244 kts | 315° |
| 2026-04-25 04:05 | 28.09214 | -81.41988 | 3530 ft | 237 kts | 318° |
| 2026-04-25 04:05 | 28.10490 | -81.43082 | 3518 ft | 221 kts | 342° |
| 2026-04-25 04:06 | 28.11922 | -81.43045 | 3491 ft | 206 kts | 18° |
| 2026-04-25 04:06 | 28.13184 | -81.42371 | 3480 ft | 195 kts | 26° |
| 2026-04-25 04:06 | 28.14343 | -81.41642 | 3470 ft | 185 kts | 29° |
| 2026-04-25 04:06 | 28.15399 | -81.40873 | 3449 ft | 176 kts | 37° |
| 2026-04-25 04:07 | 28.16373 | -81.40022 | 3450 ft | 177 kts | 33° |
| 2026-04-25 04:07 | 28.17455 | -81.39351 | 3450 ft | 179 kts | 27° |
| 2026-04-25 04:07 | 28.18541 | -81.38644 | 3460 ft | 179 kts | 30° |
| 2026-04-25 04:07 | 28.19648 | -81.37962 | 3462 ft | 180 kts | 27° |
| 2026-04-25 04:08 | 28.20758 | -81.37299 | 3453 ft | 181 kts | 29° |
| 2026-04-25 04:08 | 28.21887 | -81.36620 | 3457 ft | 182 kts | 24° |
| 2026-04-25 04:08 | 28.23009 | -81.35923 | 3458 ft | 183 kts | 30° |
| 2026-04-25 04:08 | 28.24075 | -81.35173 | 3451 ft | 177 kts | 30° |
| 2026-04-25 04:09 | 28.25073 | -81.34398 | 3441 ft | 168 kts | 38° |
| 2026-04-25 04:09 | 28.25966 | -81.33632 | 3430 ft | 159 kts | 34° |
| 2026-04-25 04:09 | 28.26843 | -81.32884 | 3238 ft | 165 kts | 38° |
| 2026-04-25 04:09 | 28.27742 | -81.32034 | 3043 ft | 163 kts | 40° |
| 2026-04-25 04:10 | 28.28666 | -81.31312 | 2873 ft | 160 kts | 31° |
| 2026-04-25 04:10 | 28.29684 | -81.30691 | 2681 ft | 162 kts | 27° |
| 2026-04-25 04:10 | 28.30390 | -81.30335 | 2762 ft | 154 kts | 22° |
| 2026-04-25 04:10 | 28.31460 | -81.29913 | 2486 ft | 161 kts | 13° |
| 2026-04-25 04:11 | 28.33654 | -81.29526 | 2016 ft | 158 kts | 6° |
| 2026-04-25 04:11 | 28.34713 | -81.29495 | 1910 ft | 162 kts | 2° |
| 2026-04-25 04:11 | 28.35859 | -81.29597 | 1501 ft | 162 kts | 356° |
| 2026-04-25 04:12 | 28.36957 | -81.29718 | 1116 ft | 161 kts | 359° |
| 2026-04-25 04:12 | 28.38049 | -81.29720 | 727 ft | 158 kts | 4° |
| 2026-04-25 04:12 | 28.39114 | -81.29659 | 438 ft | 153 kts | 6° |
| 2026-04-25 04:12 | 28.40140 | -81.29562 | 255 ft | 150 kts | 4° |
| 2026-04-25 04:13 | 28.41176 | -81.29568 | 86 ft | 148 kts | 0° |
| 2026-04-25 04:13 | 28.41953 | -81.29557 | 87 ft | 114 kts | 360° |
| 2026-04-25 04:13 | 28.42523 | -81.29575 | 87 ft | 58 kts | 357° |
| 2026-04-25 04:14 | 28.42896 | -81.29720 | 90 ft | 8 kts | 284° |
| 2026-04-25 04:14 | 28.42905 | -81.29772 | 90 ft | 6 kts | 276° |
| 2026-04-25 04:14 | 28.42907 | -81.29807 | 90 ft | 4 kts | 272° |
| 2026-04-25 04:14 | 28.42908 | -81.29833 | 90 ft | 3 kts | 272° |
| 2026-04-25 04:15 | 28.42908 | -81.29851 | 90 ft | 3 kts | 270° |
| 2026-04-25 04:15 | 28.42907 | -81.29869 | 89 ft | 3 kts | 258° |
| 2026-04-25 04:15 | 28.42900 | -81.29886 | 89 ft | 3 kts | 239° |
| 2026-04-25 04:15 | 28.42890 | -81.29901 | 89 ft | 3 kts | 224° |
| 2026-04-25 04:16 | 28.42875 | -81.29913 | 88 ft | 2 kts | 198° |
| 2026-04-25 04:16 | 28.42857 | -81.29916 | 88 ft | 2 kts | 167° |
| 2026-04-25 04:16 | 28.42859 | -81.29881 | 89 ft | 5 kts | 39° |
| 2026-04-25 04:16 | 28.42955 | -81.29811 | 90 ft | 20 kts | 17° |
| 2026-04-25 04:17 | 28.43083 | -81.29801 | 90 ft | 18 kts | 0° |
| 2026-04-25 04:17 | 28.43197 | -81.29800 | 90 ft | 18 kts | 359° |
| 2026-04-25 04:17 | 28.43308 | -81.29812 | 90 ft | 17 kts | 325° |
| 2026-04-25 04:17 | 28.43372 | -81.29911 | 90 ft | 17 kts | 313° |
| 2026-04-25 04:18 | 28.43474 | -81.29952 | 90 ft | 16 kts | 352° |
| 2026-04-25 04:18 | 28.43512 | -81.29981 | 90 ft | 3 kts | 289° |
| 2026-04-25 04:18 | 28.43513 | -81.29999 | 90 ft | 2 kts | 268° |
| 2026-04-25 04:18 | 28.43512 | -81.30016 | 90 ft | 2 kts | 264° |
| 2026-04-25 04:19 | 28.43510 | -81.30032 | 90 ft | 0 kts | 264° |
| 2026-04-25 04:19 | 28.43510 | -81.30035 | 89 ft | 1 kts | 262° |
| 2026-04-25 04:20 | 28.43509 | -81.30039 | 89 ft | 0 kts | 262° |